Elkton, MN (55933)

3:15 AM CDT on July 29, 2015 (GMT -0500)
IEM | | Change Station
CLOSE
Current Station
Personal Weather Station
Location: Le Roy, MN
Elevation: 1290 ft
Nearby Weather Stations
Active Advisory: Flood Warning Active Notice: Record Report

Elev 1290 ft 43.51 °N, 92.51 °W | Updated 16 minutes ago

Clear
Clear
64 °F
Feels Like 64 °F
N
0
Wind Variable Wind from North
Gusts 0.0 mph

Today
High -- | Low -- °F
--% Chance of Precip.
Yesterday
High -- | Low -- °F
Precip. -- in
5:56 AM 8:37 PM
Waxing Gibbous, 94% visible
Pressure 30.00 in
Visibility 10.0 miles
Clouds Clear
Dew Point 63 °F
Humidity 94%
Rainfall in
Snow Depth Not available.
UV 0 out of 12
Pollen 1.00 out of 12
Air Quality Not available.
Flu Activity Not available.
METAR KAUM 290756Z AUTO 27006KT 10SM CLR 19/16 A3000 RMK AO2

More Conditions Fewer Conditions

Pressure 30.00 in
Visibility 10.0 miles
Clouds Clear
Dew Point 63 °F
Humidity 94%
Rainfall in
Snow Depth Not available.
UV 0 out of 12
Pollen 1.00 out of 12
Air Quality Not available.
Flu Activity Not available.
METAR KAUM 290756Z AUTO 27006KT 10SM CLR 19/16 A3000 RMK AO2

More Conditions Fewer Conditions

10-Day Weather Forecast

×

Almanac

Astronomy

Jul. 29, 2015 Rise Set
Actual Time
Civil Twilight
Nautical Twilight
Astronomical Twilight
Moon
Length of Visible Light
Length of Day
Tomorrow will be .
, % of the Moon is Illuminated

Today's Extremes

State Highs State Lows

Community

WunderPhotos

Upload Photos

1,842,068 photos uploaded!

WunderBlogs® & News

Nearby

Air Quality

  Air Quality AQ Index Pollutant
Not available.

Snow Depth

Station Depth Elevation

Earthquake Activity

City Distance Mag. Time & Date
Minimum magnitude displayed is 2.5.

Coastal Water Temperatures

Place Temperature

Stations

Nearby Weather Stations

Station Location Temp. Windchill Dew Point Humidity Wind Precip. Elev Updated Type
                   
Flood Warning
Statement as of 8:47 PM CDT on July 28, 2015

The National Weather Service in La Crosse WI has issued a

* Flood Warning for
The Turtle creek near Austin 3nw.
* From late tonight to Wednesday evening.
* At 8:30 PM Tuesday the stage was 9.9 feet.
* Flood stage is 10.5 feet.
* Minor flooding is forecast.
* Forecast... the river is expected to rise to near flood stage
Wednesday morning.
* Impact... at 10.5 feet... minor flooding begins along the creek in
Austin.


Lat... Lon 4370 9305 4368 9300 4365 9297 4364 9298 4367 9305